METAR AND TAF INFORMATION
METAR FOR LFRV
ADDS - METARS form results

(2231 UTC 19 May 2019)
Data provider http://aviationweather.gov/metar/data/
 
METAR text: LFRV 192200Z AUTO 34004KT 9999 SCT024 OVC100 09/09 Q1012
Conditions at: LFRV (VANNES/MEUCON , FR) observed 2200 UTC 19 May 2019
Temperature: 9.0°C (48°F)
Dewpoint: 9.0°C (48°F) [RH = 100%]
Pressure (altimeter): 29.88 inches Hg (1012.0 mb)
Winds: from the NNW (340 degrees) at 5 MPH (4 knots; 2.1 m/s)
Visibility: 6 or more miles (10+ km)
Ceiling: 10000 feet AGL
Clouds: scattered clouds at 2400 feet AGL
overcast cloud deck at 10000 feet AGL
Weather: no significant weather observed at this time

 AIRPORT MAP

 RUNWAY INFORMATION
Runway 04 Runway length 5020 ft Runway width 148 ft
Runway elevation 429 ft Runway displaced threshold 0 ft Runway heading 39
Runway 22 Runway length 5020 ft Runway width 148 ft
Runway elevation 437 ft Runway displaced threshold 0 ft Runway heading 219
Runway 08 Runway length 3363 ft Runway width 197 ft
Runway elevation 433 ft Runway displaced threshold 328 ft Runway heading 82
Runway 26 Runway length 3363 ft Runway width 197 ft
Runway elevation 440 ft Runway displaced threshold 0 ft Runway heading 262

 AIRPORT FREQUENCIES
Type TWR Name VANNES TWR Frequency 122.6 MHZ

 AIRPORT NEAR NAVIGATION AIDS



Powered by Virtual Airlines Manager [v2.6.2]